Time;durP1;ratioP1;P1;durP2;ratioP2;P2;SDS_P1;SDS_P2;PMS_P1;PMS_P2;Temp;Humidity;BMP_temperature;BMP_pressure;BME280_temperature;BME280_humidity;BME280_pressure;Samples;Min_cycle;Max_cycle;Signal;HPM_P1;HPM_P2
2022/09/16 00:01:47;;;;;;;11.52;2.63;;;;;;;11.45;100.00;100950.44;5226720;28;20544;-65
2022/09/16 00:04:18;;;;;;;9.40;2.88;;;;;;;11.46;100.00;100952.09;5229432;28;20376;-65
2022/09/16 00:06:49;;;;;;;7.00;2.15;;;;;;;11.49;100.00;100949.22;5233509;28;20695;-65
2022/09/16 00:09:20;;;;;;;12.40;3.20;;;;;;;11.50;100.00;100948.22;5225935;28;20025;-65
2022/09/16 00:11:52;;;;;;;7.32;2.80;;;;;;;11.51;100.00;100941.91;5231759;28;20426;-65
2022/09/16 00:14:23;;;;;;;6.47;2.80;;;;;;;11.55;100.00;100940.69;5223908;28;20402;-65
2022/09/16 00:16:54;;;;;;;7.25;2.88;;;;;;;11.57;100.00;100941.44;5233766;28;20029;-65
2022/09/16 00:19:25;;;;;;;8.35;2.90;;;;;;;11.64;100.00;100939.13;5229029;28;20094;-64
2022/09/16 00:21:57;;;;;;;9.95;3.20;;;;;;;11.58;100.00;100936.94;5227807;28;20029;-64
2022/09/16 00:24:28;;;;;;;7.40;2.60;;;;;;;11.62;100.00;100937.53;5230449;28;20112;-65
2022/09/16 00:26:59;;;;;;;7.30;2.85;;;;;;;11.76;100.00;100932.78;5230799;28;20026;-65
2022/09/16 00:29:31;;;;;;;7.18;2.83;;;;;;;11.60;100.00;100936.81;5225144;28;20542;-64
2022/09/16 00:32:02;;;;;;;9.20;2.72;;;;;;;11.63;100.00;100931.22;5217511;28;20063;-64
2022/09/16 00:34:33;;;;;;;9.30;3.63;;;;;;;11.68;100.00;100927.22;5225690;28;20091;-65
2022/09/16 00:37:08;;;;;;;8.57;2.70;;;;;;;11.62;100.00;100935.75;5227353;28;20455;-64
2022/09/16 00:39:40;;;;;;;9.55;2.92;;;;;;;11.56;100.00;100930.84;5236987;28;20037;-64
2022/09/16 00:42:11;;;;;;;5.40;2.72;;;;;;;11.49;100.00;100930.50;5223376;28;20032;-64
2022/09/16 00:45:04;;;;;;;8.30;2.70;;;;;;;11.45;100.00;100929.06;5231104;28;20053;-64
2022/09/16 00:47:41;;;;;;;4.32;2.42;;;;;;;11.37;100.00;100923.44;5232633;28;20386;-64
2022/09/16 00:50:25;;;;;;;9.40;3.05;;;;;;;11.53;100.00;100925.78;5225799;28;20033;-64
2022/09/16 00:52:58;;;;;;;7.95;3.20;;;;;;;11.33;100.00;100921.97;5227443;28;20120;-64
2022/09/16 00:55:34;;;;;;;8.93;3.47;;;;;;;11.30;100.00;100931.09;5231967;28;20176;-64
2022/09/16 00:58:26;;;;;;;11.57;4.93;;;;;;;11.32;100.00;100920.31;5222883;28;20034;-64
2022/09/16 01:00:57;;;;;;;8.38;2.70;;;;;;;11.30;100.00;100917.75;5224976;28;20582;-64
2022/09/16 01:03:30;;;;;;;8.48;3.38;;;;;;;11.17;100.00;100917.84;5232459;28;20040;-64
2022/09/16 01:06:02;;;;;;;6.25;2.55;;;;;;;11.10;100.00;100913.97;5234820;28;20087;-64
2022/09/16 01:08:33;;;;;;;6.40;3.03;;;;;;;11.11;100.00;100912.16;5236892;28;20025;-64
2022/09/16 01:11:04;;;;;;;7.82;3.13;;;;;;;11.03;100.00;100910.06;5213885;28;20034;-64
2022/09/16 01:13:37;;;;;;;9.15;3.20;;;;;;;11.02;100.00;100908.34;5229628;28;20041;-64
2022/09/16 01:16:22;;;;;;;7.75;2.70;;;;;;;10.99;100.00;100909.44;5229714;28;20040;-64
2022/09/16 01:19:31;;;;;;;8.60;2.95;;;;;;;10.97;100.00;100907.88;5239631;28;20162;-64
2022/09/16 01:22:32;;;;;;;6.95;3.40;;;;;;;10.92;100.00;100923.38;5238025;28;20514;-64
2022/09/16 01:25:03;;;;;;;6.35;2.92;;;;;;;10.89;100.00;100920.94;5233117;28;20040;-64
2022/09/16 01:27:48;;;;;;;9.05;3.15;;;;;;;10.91;100.00;100908.31;5228297;28;21049;-64
2022/09/16 01:30:40;;;;;;;9.45;3.42;;;;;;;10.84;100.00;100915.13;5229758;28;20397;-64
2022/09/16 01:33:18;;;;;;;8.02;3.25;;;;;;;10.78;100.00;100925.28;5234873;28;20038;-64
2022/09/16 01:36:11;;;;;;;6.10;3.20;;;;;;;10.73;100.00;100922.13;5232613;28;20044;-64
2022/09/16 01:38:58;;;;;;;7.38;3.10;;;;;;;10.73;100.00;100913.28;5232170;28;20057;-64
2022/09/16 01:41:56;;;;;;;8.25;3.22;;;;;;;10.66;100.00;100917.34;5235326;28;20467;-64
2022/09/16 01:44:43;;;;;;;6.25;3.28;;;;;;;10.65;100.00;100919.19;5237741;28;20057;-64
2022/09/16 01:47:24;;;;;;;9.32;3.80;;;;;;;10.57;100.00;100914.44;5231117;28;20033;-64
2022/09/16 01:50:18;;;;;;;6.15;3.13;;;;;;;10.56;100.00;100911.88;5229977;28;20114;-64
2022/09/16 01:53:07;;;;;;;9.33;3.47;;;;;;;10.50;100.00;100907.84;5228390;28;20032;-64
2022/09/16 01:55:44;;;;;;;9.02;3.30;;;;;;;10.44;100.00;100902.13;5229782;28;20033;-64
2022/09/16 01:58:26;;;;;;;13.43;3.58;;;;;;;10.45;100.00;100912.69;5227662;28;20441;-64
2022/09/16 02:01:05;;;;;;;7.03;3.95;;;;;;;10.37;100.00;100913.28;5234876;28;20065;-64
2022/09/16 02:03:42;;;;;;;9.77;3.58;;;;;;;10.35;100.00;100914.34;5219413;28;20034;-64
2022/09/16 02:06:20;;;;;;;7.00;3.30;;;;;;;10.37;100.00;100921.28;5224453;28;20038;-63
2022/09/16 02:09:03;;;;;;;7.47;3.45;;;;;;;10.34;100.00;100931.31;5239707;28;20546;-64
2022/09/16 02:11:38;;;;;;;6.03;3.03;;;;;;;10.27;100.00;100927.34;5234970;28;20434;-64
2022/09/16 02:14:19;;;;;;;8.40;3.72;;;;;;;10.42;100.00;100930.75;5221110;28;20474;-64
2022/09/16 02:16:59;;;;;;;12.48;3.72;;;;;;;10.30;100.00;100930.69;5223959;28;20033;-64
2022/09/16 02:19:41;;;;;;;7.43;3.00;;;;;;;10.28;100.00;100932.59;5226581;28;20387;-64
2022/09/16 02:22:16;;;;;;;8.40;3.20;;;;;;;10.36;100.00;100929.38;5238450;28;20471;-65
2022/09/16 02:24:49;;;;;;;8.35;3.60;;;;;;;10.31;100.00;100929.69;5224518;28;20660;-64
2022/09/16 02:27:21;;;;;;;11.45;3.60;;;;;;;10.29;100.00;100926.28;5233953;28;20037;-64
2022/09/16 02:29:59;;;;;;;7.72;2.90;;;;;;;10.26;100.00;100926.50;5234287;28;20021;-64
2022/09/16 02:32:34;;;;;;;7.00;2.28;;;;;;;10.32;100.00;100922.59;5229188;28;20068;-64
2022/09/16 02:35:10;;;;;;;9.65;3.00;;;;;;;10.30;100.00;100920.03;5230497;28;20038;-63
2022/09/16 02:37:49;;;;;;;9.10;3.00;;;;;;;10.30;100.00;100925.34;5234785;28;20207;-64
2022/09/16 02:40:28;;;;;;;6.18;3.10;;;;;;;10.35;100.00;100919.66;5236814;28;20037;-63
2022/09/16 02:43:01;;;;;;;10.20;3.47;;;;;;;10.37;100.00;100923.06;5233995;28;20073;-64
2022/09/16 02:45:45;;;;;;;9.32;3.20;;;;;;;10.49;100.00;100918.63;5226117;28;20033;-64
2022/09/16 02:48:32;;;;;;;7.70;3.40;;;;;;;10.45;100.00;100914.50;5233335;28;20585;-64
2022/09/16 02:51:28;;;;;;;10.50;3.53;;;;;;;10.47;100.00;100925.91;5240468;28;20041;-64
2022/09/16 02:54:17;;;;;;;7.70;2.85;;;;;;;10.45;100.00;100920.69;5224057;28;20032;-64
2022/09/16 02:56:49;;;;;;;7.05;3.00;;;;;;;10.52;100.00;100929.06;5228576;28;20116;-64
2022/09/16 02:59:21;;;;;;;9.75;3.05;;;;;;;10.43;100.00;100927.09;5232579;28;20480;-63
2022/09/16 03:01:52;;;;;;;6.60;2.92;;;;;;;10.46;100.00;100924.22;5228717;28;20128;-64
2022/09/16 03:04:23;;;;;;;9.48;3.30;;;;;;;10.49;100.00;100922.16;5227862;28;20091;-64
2022/09/16 03:06:55;;;;;;;9.65;3.38;;;;;;;10.54;100.00;100919.97;5235414;28;20071;-63
2022/09/16 03:09:28;;;;;;;7.10;3.15;;;;;;;10.50;100.00;100928.34;5233484;28;20030;-63
2022/09/16 03:12:24;;;;;;;8.73;2.90;;;;;;;10.51;100.00;100917.56;5225291;28;20111;-63
2022/09/16 03:15:09;;;;;;;10.13;3.13;;;;;;;10.50;100.00;100912.34;5225760;28;20056;-63
2022/09/16 03:17:59;;;;;;;8.48;3.28;;;;;;;10.54;100.00;100903.97;5231473;28;20041;-64
2022/09/16 03:20:53;;;;;;;7.30;3.03;;;;;;;10.58;100.00;100908.16;5232542;28;20049;-63
2022/09/16 03:23:58;;;;;;;11.15;3.30;;;;;;;10.59;100.00;100909.81;5225964;28;20025;-63
2022/09/16 03:26:50;;;;;;;9.13;3.75;;;;;;;10.54;100.00;100924.47;5229815;28;20097;-63
2022/09/16 03:29:33;;;;;;;9.38;3.17;;;;;;;10.56;100.00;100909.19;5229453;28;20091;-63
2022/09/16 03:32:22;;;;;;;6.07;2.58;;;;;;;10.57;100.00;100914.44;5231628;28;20033;-63
2022/09/16 03:35:03;;;;;;;9.13;3.38;;;;;;;10.55;100.00;100916.38;5224714;28;20029;-63
2022/09/16 03:37:38;;;;;;;7.15;2.63;;;;;;;10.51;100.00;100914.91;5236088;28;20587;-63
2022/09/16 03:40:13;;;;;;;5.10;2.70;;;;;;;10.68;100.00;100910.97;5236221;28;20573;-63
2022/09/16 03:42:45;;;;;;;8.45;2.63;;;;;;;10.61;100.00;100903.53;5229323;28;20442;-63
2022/09/16 03:45:21;;;;;;;5.75;2.70;;;;;;;10.63;100.00;100907.78;5232632;28;20048;-63
2022/09/16 03:47:52;;;;;;;6.13;2.30;;;;;;;10.52;100.00;100910.41;5230949;28;20035;-63
2022/09/16 03:50:23;;;;;;;6.88;2.65;;;;;;;10.59;100.00;100906.31;5225948;28;20034;-63
2022/09/16 03:52:55;;;;;;;6.20;2.60;;;;;;;10.63;100.00;100912.28;5228903;28;20466;-63
2022/09/16 03:55:26;;;;;;;7.28;2.75;;;;;;;10.52;100.00;100908.56;5231877;28;20121;-64
2022/09/16 03:57:58;;;;;;;5.55;2.70;;;;;;;10.54;100.00;100911.97;5220988;28;20030;-63
2022/09/16 04:00:29;;;;;;;7.68;3.53;;;;;;;10.57;100.00;100908.25;5232690;28;20120;-63
2022/09/16 04:03:00;;;;;;;9.80;3.28;;;;;;;10.51;100.00;100908.72;5226443;28;20025;-63
2022/09/16 04:05:31;;;;;;;8.60;2.60;;;;;;;10.51;100.00;100908.72;5228356;28;20451;-63
2022/09/16 04:08:03;;;;;;;11.27;3.38;;;;;;;10.51;100.00;100911.38;5226051;28;20475;-63
2022/09/16 04:10:34;;;;;;;6.00;3.13;;;;;;;10.59;100.00;100909.00;5213359;28;20038;-63
2022/09/16 04:13:05;;;;;;;6.82;2.55;;;;;;;10.51;100.00;100914.06;5212639;28;20038;-63
2022/09/16 04:15:37;;;;;;;9.13;3.30;;;;;;;10.52;100.00;100907.75;5212081;28;20157;-63
2022/09/16 04:18:09;;;;;;;6.95;2.67;;;;;;;10.51;100.00;100908.72;5222422;28;20041;-63
2022/09/16 04:20:41;;;;;;;8.05;2.70;;;;;;;10.52;100.00;100915.75;5234456;28;20648;-63
2022/09/16 04:23:12;;;;;;;6.82;2.80;;;;;;;10.52;100.00;100915.75;5231991;28;20522;-63
2022/09/16 04:25:43;;;;;;;7.72;2.88;;;;;;;10.67;100.00;100913.75;5233245;28;20025;-63
2022/09/16 04:28:14;;;;;;;8.43;3.00;;;;;;;10.54;100.00;100922.66;5223513;28;20769;-64
2022/09/16 04:30:46;;;;;;;12.10;3.95;;;;;;;10.62;100.00;100910.56;5232040;28;20552;-63
2022/09/16 04:33:18;;;;;;;6.55;2.63;;;;;;;10.60;100.00;100916.00;5233191;28;20037;-63
2022/09/16 04:35:49;;;;;;;8.02;2.40;;;;;;;10.56;100.00;100923.38;5220356;28;20029;-63
2022/09/16 04:38:20;;;;;;;6.72;2.30;;;;;;;10.56;100.00;100928.72;5234977;28;20041;-63
2022/09/16 04:40:53;;;;;;;6.97;2.40;;;;;;;10.54;100.00;100929.81;5243085;28;20049;-63
2022/09/16 04:43:24;;;;;;;9.05;2.80;;;;;;;10.53;100.00;100922.78;5233660;28;20039;-63
2022/09/16 04:45:56;;;;;;;6.88;2.08;;;;;;;10.59;100.00;100923.16;5237211;28;20518;-63
2022/09/16 04:48:28;;;;;;;5.47;1.92;;;;;;;10.52;100.00;100918.41;5234947;28;20029;-63
2022/09/16 04:51:08;;;;;;;6.93;1.50;;;;;;;10.53;100.00;100912.97;5223295;28;20421;-63
2022/09/16 04:53:42;;;;;;;5.78;1.58;;;;;;;10.54;100.00;100903.13;5224753;28;20447;-63
2022/09/16 04:56:18;;;;;;;;;;;;;;;10.58;100.00;100901.94;5225791;28;20533;-64
2022/09/16 04:58:52;;;;;;;6.95;1.40;;;;;;;10.53;100.00;100899.63;5230119;28;19916;-63
2022/09/16 05:01:26;;;;;;;7.32;1.77;;;;;;;10.56;100.00;100907.38;5225022;28;20033;-63
2022/09/16 05:04:01;;;;;;;4.40;1.80;;;;;;;10.57;100.00;100909.09;5232234;28;20394;-63
2022/09/16 05:06:35;;;;;;;5.20;1.30;;;;;;;10.52;100.00;100910.41;5237234;28;20021;-63
2022/09/16 05:09:07;;;;;;;;;;;;;;;10.57;100.00;100914.44;5236007;28;20518;-63
2022/09/16 05:11:39;;;;;;;4.63;1.42;;;;;;;10.53;100.00;100917.47;5234524;28;19913;-64
2022/09/16 05:14:14;;;;;;;5.30;1.70;;;;;;;10.58;100.00;100917.94;5229742;28;20029;-63
2022/09/16 05:16:46;;;;;;;7.68;1.55;;;;;;;10.50;100.00;100915.00;5242995;28;20029;-63
2022/09/16 05:19:17;;;;;;;8.20;1.50;;;;;;;10.50;100.00;100918.50;5237432;28;20586;-65
2022/09/16 05:21:48;;;;;;;5.90;1.42;;;;;;;10.48;100.00;100917.78;5234397;28;20033;-63
2022/09/16 05:24:20;;;;;;;6.03;1.52;;;;;;;10.49;100.00;100927.50;5238317;28;20038;-63
2022/09/16 05:26:51;;;;;;;4.68;1.27;;;;;;;10.50;100.00;100934.53;5224081;28;20025;-63
2022/09/16 05:29:22;;;;;;;5.13;1.52;;;;;;;10.51;100.00;100924.72;5232095;28;20105;-63
2022/09/16 05:31:54;;;;;;;4.38;1.50;;;;;;;10.53;100.00;100933.47;5217811;28;20022;-64
2022/09/16 05:34:27;;;;;;;5.43;1.55;;;;;;;10.55;100.00;100921.69;5219548;28;20048;-63
2022/09/16 05:36:59;;;;;;;8.27;1.88;;;;;;;10.57;100.00;100925.09;5215711;28;20736;-63
2022/09/16 05:39:30;;;;;;;6.57;1.77;;;;;;;10.60;100.00;100934.69;5217416;28;20031;-63
2022/09/16 05:42:03;;;;;;;3.83;1.45;;;;;;;10.62;100.00;100929.25;5218040;28;20029;-63
2022/09/16 05:44:35;;;;;;;9.35;1.60;;;;;;;10.64;100.00;100936.16;5224940;28;20361;-63
2022/09/16 05:47:06;;;;;;;7.47;1.48;;;;;;;10.69;100.00;100934.00;5216430;28;20026;-63
2022/09/16 05:49:38;;;;;;;6.20;1.58;;;;;;;10.70;100.00;100934.84;5220436;28;20419;-63
2022/09/16 05:52:10;;;;;;;6.13;1.50;;;;;;;10.73;100.00;100931.94;5218071;28;20041;-63
2022/09/16 05:54:41;;;;;;;5.80;1.38;;;;;;;10.74;100.00;100926.50;5220059;28;20112;-63
2022/09/16 05:57:13;;;;;;;5.18;1.30;;;;;;;10.78;100.00;100927.13;5214141;28;20033;-63
2022/09/16 05:59:44;;;;;;;4.50;1.20;;;;;;;10.81;100.00;100928.69;5215173;28;20037;-62
2022/09/16 06:02:15;;;;;;;4.85;1.30;;;;;;;10.84;100.00;100923.13;5216229;28;20029;-62
2022/09/16 06:04:47;;;;;;;7.10;1.70;;;;;;;10.84;100.00;100915.97;5220105;28;20026;-62
2022/09/16 06:07:18;;;;;;;5.57;1.75;;;;;;;10.88;100.00;100917.44;5237564;28;20029;-63
2022/09/16 06:09:49;;;;;;;7.72;1.45;;;;;;;10.87;100.00;100931.72;5232917;28;20087;-63
2022/09/16 06:12:20;;;;;;;6.70;1.30;;;;;;;10.88;100.00;100927.28;5225580;28;20049;-63
2022/09/16 06:14:52;;;;;;;7.70;1.10;;;;;;;10.95;100.00;100925.84;5244712;28;20021;-63
2022/09/16 06:17:23;;;;;;;4.90;1.10;;;;;;;10.89;100.00;100928.94;5224648;28;20129;-63
2022/09/16 06:19:54;;;;;;;7.20;1.30;;;;;;;10.92;100.00;100932.25;5240354;28;20363;-64
2022/09/16 06:22:29;;;;;;;6.95;1.27;;;;;;;11.01;100.00;100932.50;5230292;28;20029;-63
2022/09/16 06:25:00;;;;;;;4.35;1.20;;;;;;;10.99;100.00;100932.63;5221997;28;20497;-63
2022/09/16 06:27:32;;;;;;;3.55;0.80;;;;;;;10.98;100.00;100939.78;5231711;28;20026;-63
2022/09/16 06:30:04;;;;;;;5.38;1.08;;;;;;;10.97;100.00;100943.44;5227047;28;20028;-63
2022/09/16 06:32:36;;;;;;;3.88;0.90;;;;;;;11.00;100.00;100947.66;5239431;28;20123;-63
2022/09/16 06:35:08;;;;;;;3.30;0.95;;;;;;;11.05;100.00;100944.66;5229168;28;20032;-63
2022/09/16 06:37:40;;;;;;;4.13;1.00;;;;;;;11.08;100.00;100947.09;5223575;28;20033;-63
2022/09/16 06:40:11;;;;;;;5.13;1.00;;;;;;;11.13;100.00;100948.44;5229732;28;20075;-63
2022/09/16 06:42:42;;;;;;;2.72;1.00;;;;;;;11.16;100.00;100942.00;5229179;28;20052;-63
2022/09/16 06:45:14;;;;;;;4.90;1.10;;;;;;;11.19;100.00;100941.75;5229596;28;20050;-63
2022/09/16 06:47:45;;;;;;;4.72;1.05;;;;;;;11.28;100.00;100943.72;5228541;28;20041;-63
2022/09/16 06:50:16;;;;;;;6.60;1.10;;;;;;;11.22;100.00;100954.03;5230231;28;20052;-63
2022/09/16 06:52:50;;;;;;;3.63;1.13;;;;;;;11.24;100.00;100963.63;5229438;28;20033;-63
2022/09/16 06:55:22;;;;;;;;;;;;;;;11.29;100.00;100963.25;5225784;28;20038;-63
2022/09/16 06:57:55;;;;;;;6.38;1.33;;;;;;;11.20;100.00;100964.84;5224316;28;19978;-63
2022/09/16 07:00:26;;;;;;;4.78;1.42;;;;;;;11.23;100.00;100953.06;5230165;28;20032;-64
2022/09/16 07:02:57;;;;;;;5.45;1.50;;;;;;;11.18;100.00;100954.28;5235437;28;20033;-63
2022/09/16 07:05:29;;;;;;;5.32;1.23;;;;;;;11.15;100.00;100956.31;5227886;28;20029;-63
2022/09/16 07:08:00;;;;;;;2.40;1.20;;;;;;;11.16;100.00;100952.66;5234233;28;20134;-63
2022/09/16 07:10:32;;;;;;;6.85;1.40;;;;;;;11.15;100.00;100954.50;5233352;28;20035;-63
2022/09/16 07:13:04;;;;;;;4.97;1.45;;;;;;;11.13;100.00;100961.78;5226859;28;20082;-64
2022/09/16 07:15:36;;;;;;;5.00;1.48;;;;;;;11.14;100.00;100955.47;5224786;28;20025;-64
2022/09/16 07:18:07;;;;;;;6.90;1.67;;;;;;;11.15;100.00;100951.00;5223587;28;20049;-63
2022/09/16 07:20:38;;;;;;;3.40;1.27;;;;;;;11.18;100.00;100943.59;5227761;28;20026;-63
2022/09/16 07:23:10;;;;;;;4.18;1.48;;;;;;;11.24;100.00;100949.41;5232827;28;20033;-64
2022/09/16 07:25:41;;;;;;;7.20;1.80;;;;;;;11.34;100.00;100953.09;5227122;28;20449;-64
2022/09/16 07:28:12;;;;;;;4.80;1.38;;;;;;;11.46;100.00;100965.47;5229897;28;20098;-64
2022/09/16 07:30:44;;;;;;;3.95;1.05;;;;;;;11.58;100.00;100963.66;5229534;28;20386;-64
2022/09/16 07:33:15;;;;;;;3.85;1.25;;;;;;;11.76;100.00;100977.41;5234235;28;20018;-62
2022/09/16 07:35:46;;;;;;;6.28;1.73;;;;;;;11.83;100.00;100975.94;5230800;28;20312;-62
2022/09/16 07:38:17;;;;;;;6.50;1.15;;;;;;;11.88;100.00;100975.56;5229868;28;20034;-63
2022/09/16 07:40:49;;;;;;;5.70;1.00;;;;;;;11.90;100.00;100966.47;5226886;28;20060;-63
2022/09/16 07:43:20;;;;;;;6.55;1.50;;;;;;;11.91;100.00;100976.22;5226598;28;20025;-63
2022/09/16 07:45:56;;;;;;;3.50;1.50;;;;;;;11.94;100.00;100981.28;5230514;28;20070;-64
2022/09/16 07:48:29;;;;;;;3.42;1.42;;;;;;;12.00;100.00;100979.94;5233089;28;20033;-64
2022/09/16 07:51:09;;;;;;;3.97;1.63;;;;;;;12.07;100.00;100980.31;5233765;28;20487;-64
2022/09/16 07:53:41;;;;;;;5.05;1.50;;;;;;;12.10;100.00;100977.38;5230379;28;20025;-64
2022/09/16 07:56:14;;;;;;;5.20;1.80;;;;;;;12.07;100.00;100970.47;5224386;28;20406;-64
2022/09/16 07:58:46;;;;;;;5.78;1.60;;;;;;;12.00;100.00;100973.75;5222369;28;20044;-64
2022/09/16 08:01:17;;;;;;;4.63;1.60;;;;;;;11.95;100.00;100974.13;5231417;28;20036;-64
2022/09/16 08:03:49;;;;;;;5.07;1.77;;;;;;;11.89;100.00;100986.19;5233674;28;20029;-64
2022/09/16 08:06:22;;;;;;;3.67;1.63;;;;;;;11.85;100.00;100991.84;5231522;28;20064;-64
2022/09/16 08:08:56;;;;;;;4.38;1.88;;;;;;;11.86;100.00;100994.41;5232280;28;20025;-64
2022/09/16 08:11:28;;;;;;;5.77;1.80;;;;;;;11.88;100.00;101002.31;5228844;28;20034;-64
2022/09/16 08:14:00;;;;;;;4.45;1.75;;;;;;;11.92;100.00;100998.44;5230151;28;20033;-64
2022/09/16 08:16:31;;;;;;;5.97;2.33;;;;;;;11.93;100.00;100987.63;5229991;28;20033;-64
2022/09/16 08:19:03;;;;;;;7.85;2.10;;;;;;;12.02;100.00;100993.19;5227883;28;20041;-64
2022/09/16 08:21:34;;;;;;;8.02;2.33;;;;;;;12.06;100.00;100989.31;5232498;28;20033;-64
2022/09/16 08:24:05;;;;;;;5.25;2.33;;;;;;;12.12;100.00;100988.84;5233353;28;20029;-64
2022/09/16 08:26:37;;;;;;;8.80;2.47;;;;;;;12.28;100.00;100989.28;5227415;28;20136;-64
2022/09/16 08:29:08;;;;;;;7.78;2.00;;;;;;;12.42;100.00;100995.31;5229989;28;20037;-64
2022/09/16 08:31:39;;;;;;;6.45;2.20;;;;;;;12.43;100.00;100997.03;5229397;28;20044;-64
2022/09/16 08:34:11;;;;;;;4.50;1.90;;;;;;;12.41;100.00;100999.84;5233025;28;20521;-64
2022/09/16 08:36:42;;;;;;;4.95;2.00;;;;;;;12.42;100.00;101006.88;5232500;28;20030;-64
2022/09/16 08:39:14;;;;;;;5.22;1.63;;;;;;;12.43;100.00;100994.38;5232345;28;20029;-64
2022/09/16 08:41:58;;;;;;;6.10;1.70;;;;;;;12.46;100.00;101005.63;5232445;28;20025;-64
2022/09/16 08:44:45;;;;;;;6.25;2.05;;;;;;;12.53;100.00;100997.97;5229715;28;20079;-64
2022/09/16 08:47:53;;;;;;;4.55;1.70;;;;;;;12.63;100.00;100998.91;5229830;28;20033;-64
2022/09/16 08:50:30;;;;;;;6.78;1.60;;;;;;;12.78;100.00;100991.44;5224607;28;20049;-64
2022/09/16 08:53:10;;;;;;;5.03;1.60;;;;;;;12.93;100.00;101002.69;5232989;28;20528;-63
2022/09/16 08:55:45;;;;;;;5.35;1.40;;;;;;;13.03;100.00;100995.56;5231416;28;20471;-64
2022/09/16 08:58:21;;;;;;;6.80;1.42;;;;;;;13.17;100.00;100998.91;5228415;28;20490;-63
2022/09/16 09:01:01;;;;;;;6.03;1.40;;;;;;;13.26;100.00;100998.13;5232196;28;20476;-64
2022/09/16 09:03:36;;;;;;;5.93;1.13;;;;;;;13.33;100.00;101002.03;5232877;28;20538;-63
2022/09/16 09:06:30;;;;;;;5.35;1.00;;;;;;;13.33;100.00;101002.03;5231191;28;20133;-64
2022/09/16 09:09:39;;;;;;;4.68;1.10;;;;;;;13.38;100.00;101005.13;5231352;28;20034;-63
2022/09/16 09:12:23;;;;;;;5.55;0.93;;;;;;;13.46;100.00;101005.34;5226647;28;20048;-63
2022/09/16 09:15:13;;;;;;;3.13;0.88;;;;;;;13.59;100.00;101001.59;5226048;28;20371;-64
2022/09/16 09:18:07;;;;;;;3.35;1.00;;;;;;;13.67;100.00;101001.75;5229666;28;20438;-64
2022/09/16 09:20:55;;;;;;;6.23;1.20;;;;;;;13.69;100.00;100997.13;5227317;28;20467;-64
2022/09/16 09:23:50;;;;;;;3.00;0.80;;;;;;;13.70;100.00;100996.16;5232633;28;20029;-64
2022/09/16 09:26:47;;;;;;;3.40;1.05;;;;;;;13.69;100.00;101006.03;5236931;28;20027;-63
2022/09/16 09:29:57;;;;;;;3.47;1.00;;;;;;;13.77;100.00;101002.69;5227318;28;20082;-64
2022/09/16 09:32:42;;;;;;;5.63;1.20;;;;;;;13.82;100.00;101004.94;5223064;28;20052;-64
2022/09/16 09:35:23;;;;;;;4.78;0.90;;;;;;;13.84;100.00;100998.44;5237087;28;20029;-64
2022/09/16 09:37:57;;;;;;;3.80;1.35;;;;;;;13.85;100.00;101002.84;5236049;28;20094;-64
2022/09/16 09:40:41;;;;;;;5.38;0.98;;;;;;;14.00;100.00;100999.78;5231202;28;20118;-64
2022/09/16 09:43:19;;;;;;;4.23;1.00;;;;;;;14.06;100.00;100993.91;5235146;28;20394;-64
2022/09/16 09:46:09;;;;;;;6.20;1.25;;;;;;;14.14;100.00;100995.91;5233058;28;20303;-64
2022/09/16 09:48:45;;;;;;;3.00;0.85;;;;;;;14.20;100.00;100993.50;5233078;28;20467;-64
2022/09/16 09:51:27;;;;;;;5.38;0.90;;;;;;;14.25;100.00;100993.94;5230278;28;20498;-64
2022/09/16 09:54:04;;;;;;;3.58;0.65;;;;;;;14.27;100.00;100993.81;5230362;28;20028;-64
2022/09/16 09:56:41;;;;;;;3.70;0.70;;;;;;;14.28;100.00;100988.28;5225877;28;20367;-64
2022/09/16 09:59:25;;;;;;;6.20;0.60;;;;;;;14.31;100.00;100996.06;5230928;28;20060;-64
2022/09/16 10:01:57;;;;;;;4.82;0.80;;;;;;;14.20;100.00;101001.53;5231814;28;20033;-64
2022/09/16 10:04:36;;;;;;;1.70;0.38;;;;;;;13.97;100.00;101024.22;5225842;28;20249;-65
2022/09/16 10:07:10;;;;;;;5.05;0.60;;;;;;;13.64;100.00;101040.44;5230952;28;20033;-63
2022/09/16 10:09:50;;;;;;;4.15;0.73;;;;;;;13.39;100.00;101049.72;5230705;28;20485;-64
2022/09/16 10:12:29;;;;;;;9.88;0.93;;;;;;;12.73;100.00;101048.06;5229440;28;20527;-67
2022/09/16 10:15:00;;;;;;;6.32;1.55;;;;;;;12.03;100.00;101040.38;5229292;28;20033;-69
2022/09/16 10:17:32;;;;;;;5.03;0.65;;;;;;;11.50;100.00;101036.41;5229790;28;20067;-68
2022/09/16 10:20:20;;;;;;;3.47;0.55;;;;;;;11.08;100.00;101043.22;5233966;28;20034;-68
2022/09/16 10:23:14;;;;;;;2.78;0.30;;;;;;;10.85;100.00;101020.91;5231274;28;20067;-66
2022/09/16 10:25:45;;;;;;;2.20;0.40;;;;;;;10.82;100.00;101022.00;5227536;28;20315;-67
2022/09/16 10:28:25;;;;;;;2.58;0.35;;;;;;;10.69;100.00;101010.53;5229519;28;20032;-66
2022/09/16 10:30:58;;;;;;;3.45;0.50;;;;;;;10.59;100.00;101011.22;5227855;28;20032;-66
2022/09/16 10:33:35;;;;;;;1.85;0.50;;;;;;;10.60;100.00;101006.72;5232655;28;20111;-67
2022/09/16 10:36:08;;;;;;;3.20;0.50;;;;;;;10.53;100.00;101013.50;5228498;28;20387;-67
2022/09/16 10:38:42;;;;;;;6.10;1.27;;;;;;;10.57;100.00;101021.16;5229290;28;20103;-67
2022/09/16 10:41:15;;;;;;;4.40;0.90;;;;;;;10.62;100.00;101017.28;5231807;28;20033;-68
2022/09/16 10:43:56;;;;;;;2.75;0.50;;;;;;;10.68;100.00;101017.69;5223861;28;20406;-66
2022/09/16 10:46:29;;;;;;;2.92;0.60;;;;;;;10.71;100.00;101014.78;5227881;28;20067;-66
2022/09/16 10:49:09;;;;;;;3.25;0.57;;;;;;;10.74;100.00;101019.91;5232271;28;20079;-66
2022/09/16 10:51:41;;;;;;;7.82;0.70;;;;;;;10.81;100.00;101025.63;5232258;28;20032;-66
2022/09/16 10:54:24;;;;;;;7.82;1.48;;;;;;;10.87;100.00;101017.16;5232833;28;20727;-66
2022/09/16 10:56:55;;;;;;;7.57;1.05;;;;;;;10.96;100.00;101013.78;5224883;28;20026;-67
2022/09/16 10:59:26;;;;;;;5.57;1.38;;;;;;;11.11;100.00;101009.13;5231670;28;20478;-67
2022/09/16 11:02:37;;;;;;;7.03;1.42;;;;;;;11.23;100.00;101018.00;5227152;28;20037;-66
2022/09/16 11:05:15;;;;;;;5.43;1.67;;;;;;;11.46;100.00;101012.72;5230059;28;20087;-66
2022/09/16 11:08:07;;;;;;;7.97;2.00;;;;;;;11.59;100.00;101013.47;5229746;28;20029;-66
2022/09/16 11:11:19;;;;;;;5.93;1.55;;;;;;;11.67;100.00;101015.53;5228931;28;20033;-67
2022/09/16 11:14:28;;;;;;;7.38;1.55;;;;;;;11.77;100.00;101012.03;5240283;28;20079;-67
2022/09/16 11:17:12;;;;;;;8.38;2.10;;;;;;;11.84;100.00;101008.88;5229107;28;20186;-67
2022/09/16 11:20:04;;;;;;;6.65;1.67;;;;;;;11.81;100.00;101017.97;5232830;28;20499;-67
2022/09/16 11:22:46;;;;;;;5.45;1.98;;;;;;;11.83;100.00;101005.34;5226381;28;20059;-67
2022/09/16 11:25:34;;;;;;;5.72;1.77;;;;;;;11.83;100.00;101015.16;5228328;28;20025;-67
2022/09/16 11:28:41;;;;;;;9.77;1.90;;;;;;;11.81;100.00;101007.25;5231126;28;20088;-67
2022/09/16 11:31:31;;;;;;;5.43;1.70;;;;;;;11.86;100.00;101005.09;5229176;28;20461;-66
2022/09/16 11:34:21;;;;;;;6.72;2.10;;;;;;;11.96;100.00;101008.75;5231442;28;20030;-67
2022/09/16 11:37:30;;;;;;;6.05;2.42;;;;;;;12.10;100.00;101012.16;5231610;28;20036;-67
2022/09/16 11:40:27;;;;;;;6.80;2.15;;;;;;;12.19;100.00;101014.09;5227845;28;20474;-66
2022/09/16 11:43:16;;;;;;;6.50;2.50;;;;;;;12.39;100.00;101019.66;5233538;28;20036;-67
2022/09/16 11:46:01;;;;;;;8.63;2.30;;;;;;;12.51;100.00;101018.66;5230915;28;20539;-67
2022/09/16 11:48:47;;;;;;;6.70;2.30;;;;;;;12.59;100.00;101026.06;5229694;28;20030;-67
2022/09/16 11:51:31;;;;;;;6.88;1.25;;;;;;;12.65;100.00;101026.38;5230178;28;20144;-67
2022/09/16 11:54:18;;;;;;;4.28;1.05;;;;;;;12.77;100.00;101039.75;5232499;28;20029;-67
2022/09/16 11:56:57;;;;;;;8.55;1.50;;;;;;;12.86;100.00;101029.13;5231207;28;20072;-67
2022/09/16 11:59:40;;;;;;;6.82;1.00;;;;;;;12.86;100.00;101025.59;5230052;28;20025;-68
2022/09/16 12:02:26;;;;;;;3.35;0.73;;;;;;;12.91;100.00;101026.06;5230061;28;20501;-67
2022/09/16 12:05:05;;;;;;;5.03;0.98;;;;;;;12.85;100.00;101032.78;5233044;28;20028;-68